createdAt,value
2023-03-29T00:01:02.767Z,2.97
2023-03-29T00:03:31.732Z,3.15
2023-03-29T00:06:05.710Z,4.22
2023-03-29T00:08:35.056Z,3.22
2023-03-29T00:11:03.567Z,3.58
2023-03-29T00:13:34.062Z,2.47
2023-03-29T00:16:02.325Z,3.47
2023-03-29T00:18:30.562Z,3.60
2023-03-29T00:21:00.320Z,2.83
2023-03-29T00:23:29.140Z,2.53
2023-03-29T00:25:58.100Z,3.00
2023-03-29T00:28:26.547Z,2.60
2023-03-29T00:31:06.580Z,2.72
2023-03-29T00:33:35.106Z,2.63
2023-03-29T00:36:04.610Z,2.17
2023-03-29T00:38:33.356Z,3.10
2023-03-29T00:41:02.328Z,3.10
2023-03-29T00:43:31.143Z,2.53
2023-03-29T00:46:01.332Z,2.28
2023-03-29T00:48:31.381Z,1.52
2023-03-29T00:51:02.568Z,1.70
2023-03-29T00:53:34.652Z,1.95
2023-03-29T00:56:06.987Z,1.45
2023-03-29T00:58:39.423Z,2.10
2023-03-29T01:01:13.888Z,1.67
2023-03-29T01:03:47.337Z,2.13
2023-03-29T01:06:18.364Z,2.20
2023-03-29T01:08:52.108Z,3.67
2023-03-29T01:11:23.869Z,3.72
2023-03-29T01:13:56.774Z,1.77
2023-03-29T01:16:30.330Z,1.67
2023-03-29T01:18:59.564Z,1.90
2023-03-29T01:21:32.762Z,1.88
2023-03-29T01:24:18.804Z,1.40
2023-03-29T01:26:58.449Z,2.28
2023-03-29T01:29:33.171Z,1.95
2023-03-29T01:32:06.027Z,1.45
2023-03-29T01:34:39.653Z,1.20
2023-03-29T01:37:13.967Z,1.50
2023-03-29T01:39:42.309Z,2.58
2023-03-29T01:42:20.425Z,2.33
2023-03-29T01:44:56.940Z,1.73
2023-03-29T01:47:31.464Z,1.42
2023-03-29T01:50:07.554Z,1.58
2023-03-29T01:52:41.640Z,1.17
2023-03-29T01:55:14.220Z,1.02
2023-03-29T01:57:46.304Z,1.95
2023-03-29T02:00:20.649Z,1.40
2023-03-29T02:02:52.267Z,1.95
2023-03-29T02:05:23.311Z,1.33
2023-03-29T02:07:52.881Z,1.23
2023-03-29T02:10:22.888Z,2.10
2023-03-29T02:12:52.075Z,1.17
2023-03-29T02:15:23.546Z,2.20
2023-03-29T02:20:24.914Z,1.65
2023-03-29T02:22:58.879Z,1.38
2023-03-29T02:25:27.222Z,1.35
2023-03-29T02:27:56.305Z,2.70
2023-03-29T02:30:31.520Z,1.30
2023-03-29T02:33:04.792Z,1.67
2023-03-29T02:35:36.496Z,2.05
2023-03-29T02:38:07.267Z,0.90
2023-03-29T02:40:37.719Z,1.88
2023-03-29T02:43:08.589Z,1.00
2023-03-29T02:48:12.982Z,2.78
2023-03-29T02:50:43.991Z,1.65
2023-03-29T02:53:17.597Z,1.10
2023-03-29T02:55:47.929Z,0.85
2023-03-29T02:58:17.097Z,1.77
2023-03-29T03:00:49.300Z,1.35
2023-03-29T03:03:17.848Z,1.60
2023-03-29T03:05:51.134Z,1.15
2023-03-29T03:08:19.971Z,1.88
2023-03-29T03:10:48.815Z,1.83
2023-03-29T03:13:17.122Z,2.28
2023-03-29T03:15:49.244Z,1.13
2023-03-29T03:18:18.371Z,2.20
2023-03-29T03:20:56.235Z,2.00
2023-03-29T03:23:25.234Z,1.40
2023-03-29T03:25:53.914Z,1.52
2023-03-29T03:28:24.341Z,1.90
2023-03-29T03:30:54.367Z,1.13
2023-03-29T03:33:52.945Z,2.35
2023-03-29T03:36:34.642Z,2.10
2023-03-29T03:39:05.867Z,1.45
2023-03-29T03:41:34.537Z,2.42
2023-03-29T03:44:03.785Z,5.10
2023-03-29T03:46:33.982Z,1.17
2023-03-29T03:49:02.943Z,1.23
2023-03-29T03:54:02.366Z,1.20
2023-03-29T03:56:34.399Z,2.03
2023-03-29T03:59:06.986Z,1.10
2023-03-29T04:01:45.021Z,1.30
2023-03-29T04:04:20.698Z,1.10
2023-03-29T04:07:02.864Z,0.93
2023-03-29T04:09:37.673Z,1.02
2023-03-29T04:12:23.510Z,1.17
2023-03-29T04:14:52.154Z,1.00
2023-03-29T04:17:25.392Z,1.45
2023-03-29T04:19:57.537Z,1.45
2023-03-29T04:22:28.446Z,1.05
2023-03-29T04:24:56.683Z,0.98
2023-03-29T04:27:31.064Z,0.70
2023-03-29T04:30:01.573Z,1.15
2023-03-29T04:32:51.292Z,1.17
2023-03-29T04:35:20.944Z,1.88
2023-03-29T04:37:51.550Z,1.85
2023-03-29T04:40:22.729Z,1.20
2023-03-29T04:43:10.716Z,0.75
2023-03-29T04:45:50.604Z,1.33
2023-03-29T04:48:37.585Z,0.95
2023-03-29T04:51:06.592Z,0.93
2023-03-29T04:53:35.982Z,0.98
2023-03-29T04:56:04.455Z,1.42
2023-03-29T04:58:58.613Z,6.90
2023-03-29T05:01:26.872Z,7.88
2023-03-29T05:04:01.179Z,7.18
2023-03-29T05:06:36.807Z,12.52
2023-03-29T05:09:08.989Z,9.00
2023-03-29T05:11:51.411Z,5.25
2023-03-29T05:14:21.782Z,6.80
2023-03-29T05:16:50.238Z,3.83
2023-03-29T05:19:21.860Z,4.78
2023-03-29T05:21:51.138Z,2.80
2023-03-29T05:24:23.678Z,3.08
2023-03-29T05:26:58.712Z,1.23
2023-03-29T05:29:29.550Z,1.73
2023-03-29T05:32:10.183Z,3.60
2023-03-29T05:34:40.773Z,2.03
2023-03-29T05:37:09.316Z,1.58
2023-03-29T05:39:50.033Z,2.28
2023-03-29T05:42:23.653Z,2.65
2023-03-29T05:45:01.789Z,0.88
2023-03-29T05:47:30.398Z,1.30
2023-03-29T05:50:00.151Z,1.83
2023-03-29T05:52:28.402Z,1.70
2023-03-29T05:54:58.215Z,1.63
2023-03-29T05:57:27.519Z,1.70
2023-03-29T05:59:56.498Z,3.17
2023-03-29T06:02:28.581Z,2.38
2023-03-29T06:04:57.486Z,1.67
2023-03-29T06:07:27.132Z,4.05
2023-03-29T06:10:31.159Z,2.00
2023-03-29T06:13:14.612Z,1.75
2023-03-29T06:15:42.903Z,1.73
2023-03-29T06:18:11.772Z,2.55
2023-03-29T06:20:40.630Z,1.40
2023-03-29T06:23:15.872Z,1.20
2023-03-29T06:25:45.661Z,2.60
2023-03-29T06:28:14.450Z,1.95
2023-03-29T06:30:43.746Z,1.73
2023-03-29T06:33:12.698Z,1.00
2023-03-29T06:36:10.959Z,1.00
2023-03-29T06:38:41.658Z,1.45
2023-03-29T06:43:55.924Z,3.33
2023-03-29T06:46:30.812Z,1.30
2023-03-29T06:49:02.734Z,2.28
2023-03-29T06:51:37.507Z,1.75
2023-03-29T06:54:07.456Z,1.13
2023-03-29T06:56:38.215Z,0.68
2023-03-29T06:59:10.560Z,1.30
2023-03-29T07:01:47.346Z,2.88
2023-03-29T07:04:26.493Z,2.08
2023-03-29T07:07:20.224Z,3.13
2023-03-29T07:09:55.303Z,2.25
2023-03-29T07:12:32.755Z,2.55
2023-03-29T07:15:02.916Z,2.15
2023-03-29T07:17:51.469Z,5.18
2023-03-29T07:20:23.105Z,2.33
2023-03-29T07:23:01.287Z,2.58
2023-03-29T07:25:31.362Z,2.35
2023-03-29T07:28:00.394Z,2.47
2023-03-29T07:30:31.962Z,3.25
2023-03-29T07:33:27.160Z,2.25
2023-03-29T07:36:03.399Z,2.03
2023-03-29T07:38:32.656Z,2.58
2023-03-29T07:41:08.155Z,2.72
2023-03-29T07:43:47.242Z,2.58
2023-03-29T07:46:19.578Z,1.15
2023-03-29T07:48:48.350Z,1.55
2023-03-29T07:51:17.228Z,2.95
2023-03-29T07:53:57.631Z,1.35
2023-03-29T07:56:46.151Z,1.73
2023-03-29T07:59:41.461Z,1.33
2023-03-29T08:02:14.429Z,2.30
2023-03-29T08:04:46.920Z,4.70
2023-03-29T08:07:21.035Z,3.47
2023-03-29T08:10:24.428Z,2.05
2023-03-29T08:13:18.362Z,3.72
2023-03-29T08:16:07.753Z,2.50
2023-03-29T08:18:41.116Z,2.00
2023-03-29T08:21:10.189Z,1.35
2023-03-29T08:23:38.656Z,1.45
2023-03-29T08:26:13.815Z,2.42
2023-03-29T08:28:43.941Z,2.15
2023-03-29T08:31:13.468Z,1.90
2023-03-29T08:36:31.345Z,1.35
2023-03-29T08:39:05.860Z,2.80
2023-03-29T08:41:42.678Z,1.30
2023-03-29T08:44:23.484Z,2.08
2023-03-29T08:47:07.633Z,2.45
2023-03-29T08:49:45.229Z,2.75
2023-03-29T08:52:22.268Z,2.67
2023-03-29T08:54:56.099Z,1.80
2023-03-29T08:57:32.969Z,2.60
2023-03-29T09:00:20.970Z,3.75
2023-03-29T09:02:53.852Z,2.30
2023-03-29T09:05:27.974Z,4.57
2023-03-29T09:08:07.906Z,1.63
2023-03-29T09:10:43.101Z,1.35
2023-03-29T09:13:27.604Z,2.17
2023-03-29T09:16:03.717Z,1.65
2023-03-29T09:18:48.556Z,1.70
2023-03-29T09:21:23.916Z,1.83
2023-03-29T09:24:11.751Z,2.55
2023-03-29T09:26:49.956Z,1.58
2023-03-29T09:29:42.185Z,2.15
2023-03-29T09:32:18.806Z,1.30
2023-03-29T09:34:55.649Z,2.40
2023-03-29T09:37:31.481Z,2.45
2023-03-29T09:40:00.620Z,8.00
2023-03-29T09:42:46.598Z,2.08
2023-03-29T09:45:14.961Z,2.33
2023-03-29T09:47:53.360Z,2.38
2023-03-29T09:50:31.500Z,1.80
2023-03-29T09:53:02.972Z,3.88
2023-03-29T09:55:37.105Z,1.25
2023-03-29T09:58:33.042Z,1.70
2023-03-29T10:01:05.725Z,3.17
2023-03-29T10:03:38.231Z,4.60
2023-03-29T10:06:13.454Z,1.63
2023-03-29T10:08:51.537Z,1.90
2023-03-29T10:11:24.640Z,0.98
2023-03-29T10:13:57.431Z,2.80
2023-03-29T10:16:30.351Z,1.63
2023-03-29T10:19:00.122Z,3.67
2023-03-29T10:21:30.759Z,2.90
2023-03-29T10:24:00.472Z,3.60
2023-03-29T10:26:32.642Z,4.53
2023-03-29T10:29:03.814Z,1.38
2023-03-29T10:31:33.256Z,5.32
2023-03-29T10:34:06.782Z,3.28
2023-03-29T10:36:36.298Z,2.20
2023-03-29T10:39:06.495Z,4.43
2023-03-29T10:41:36.822Z,2.40
2023-03-29T10:44:05.495Z,1.80
2023-03-29T10:46:42.171Z,3.22
2023-03-29T10:49:20.367Z,2.95
2023-03-29T10:51:50.785Z,3.67
2023-03-29T10:54:22.284Z,2.97
2023-03-29T10:56:54.206Z,1.67
2023-03-29T10:59:30.917Z,2.30
2023-03-29T11:02:19.228Z,1.48
2023-03-29T11:04:52.572Z,1.15
2023-03-29T11:07:30.018Z,1.52
2023-03-29T11:10:12.305Z,3.70
2023-03-29T11:12:48.711Z,3.10
2023-03-29T11:15:27.522Z,1.73
2023-03-29T11:18:09.033Z,3.30
2023-03-29T11:20:43.141Z,2.75
2023-03-29T11:23:28.409Z,2.08
2023-03-29T11:26:08.962Z,1.38
2023-03-29T11:28:42.984Z,2.47
2023-03-29T11:31:25.008Z,2.17
2023-03-29T11:34:03.990Z,1.33
2023-03-29T11:36:40.164Z,4.03
2023-03-29T11:39:16.918Z,3.78
2023-03-29T11:41:48.015Z,2.42
2023-03-29T11:44:20.511Z,4.25
2023-03-29T11:46:54.678Z,1.52
2023-03-29T11:49:27.344Z,1.80
2023-03-29T11:52:02.041Z,2.95
2023-03-29T11:54:34.602Z,3.90
2023-03-29T11:57:08.083Z,5.13
2023-03-29T11:59:42.140Z,3.00
2023-03-29T12:02:17.902Z,3.83
2023-03-29T12:04:51.650Z,3.88
2023-03-29T12:07:26.696Z,3.75
2023-03-29T12:09:58.087Z,3.38
2023-03-29T12:12:29.984Z,2.90
2023-03-29T12:15:05.542Z,3.63
2023-03-29T12:17:39.332Z,1.65
2023-03-29T12:20:16.725Z,2.75
2023-03-29T12:22:50.940Z,2.30
2023-03-29T12:28:05.584Z,1.92
2023-03-29T12:30:47.815Z,2.17
2023-03-29T12:33:43.552Z,4.07
2023-03-29T12:37:03.639Z,3.50
2023-03-29T12:40:15.065Z,2.53
2023-03-29T12:43:27.067Z,5.63
2023-03-29T12:46:32.792Z,3.88
2023-03-29T12:49:09.550Z,4.10
2023-03-29T12:51:41.084Z,4.95
2023-03-29T12:54:15.397Z,3.70
2023-03-29T12:56:58.338Z,2.83
2023-03-29T12:59:35.168Z,3.13
2023-03-29T13:02:21.942Z,3.15
2023-03-29T13:04:52.494Z,6.20
2023-03-29T13:07:31.917Z,2.40
2023-03-29T13:10:03.202Z,4.80
2023-03-29T13:12:40.312Z,3.80
2023-03-29T13:15:24.156Z,3.72
2023-03-29T13:18:00.217Z,4.10
2023-03-29T13:20:44.685Z,3.25
2023-03-29T13:23:30.493Z,4.55
2023-03-29T13:26:14.280Z,6.60
2023-03-29T13:29:20.398Z,3.70
2023-03-29T13:31:58.731Z,3.78
2023-03-29T13:34:37.713Z,2.67
2023-03-29T13:37:19.257Z,3.00
2023-03-29T13:39:51.151Z,2.17
2023-03-29T13:42:24.769Z,3.20
2023-03-29T13:45:05.867Z,2.47
2023-03-29T13:47:48.978Z,3.58
2023-03-29T13:50:36.230Z,2.63
2023-03-29T13:53:11.109Z,3.90
2023-03-29T13:55:46.592Z,3.90
2023-03-29T13:58:21.726Z,3.25
2023-03-29T14:00:56.695Z,2.78
2023-03-29T14:03:29.992Z,4.40
2023-03-29T14:06:01.908Z,4.45
2023-03-29T14:08:35.363Z,1.67
2023-03-29T14:11:06.987Z,2.53
2023-03-29T14:13:36.368Z,2.35
2023-03-29T14:16:10.367Z,2.90
2023-03-29T14:18:40.729Z,2.47
2023-03-29T14:21:09.688Z,3.33
2023-03-29T14:23:42.061Z,2.08
2023-03-29T14:26:17.020Z,5.43
2023-03-29T14:28:47.236Z,3.67
2023-03-29T14:31:25.220Z,1.83
2023-03-29T14:33:54.494Z,4.25
2023-03-29T14:36:23.793Z,4.70
2023-03-29T14:38:54.366Z,3.58
2023-03-29T14:41:24.367Z,5.72
2023-03-29T14:43:52.980Z,2.88
2023-03-29T14:46:23.083Z,2.88
2023-03-29T14:48:51.615Z,3.15
2023-03-29T14:51:20.434Z,4.72
2023-03-29T14:53:49.409Z,4.00
2023-03-29T14:56:24.166Z,3.42
2023-03-29T14:58:55.784Z,4.53
2023-03-29T15:01:27.933Z,4.47
2023-03-29T15:04:03.286Z,3.75
2023-03-29T15:06:33.008Z,2.28
2023-03-29T15:09:05.954Z,4.07
2023-03-29T15:11:35.965Z,6.68
2023-03-29T15:14:07.167Z,3.53
2023-03-29T15:16:39.909Z,2.92
2023-03-29T15:19:08.342Z,6.50
2023-03-29T15:21:36.786Z,5.40
2023-03-29T15:24:06.173Z,12.98
2023-03-29T15:26:36.068Z,98.05
2023-03-29T15:29:09.161Z,240.88
2023-03-29T15:31:41.206Z,197.05
2023-03-29T15:34:12.913Z,214.05
2023-03-29T15:39:14.552Z,159.90
2023-03-29T15:41:43.650Z,122.60
2023-03-29T15:44:12.257Z,130.18
2023-03-29T15:46:41.979Z,247.35
2023-03-29T15:49:12.452Z,249.18
2023-03-29T15:51:41.693Z,344.98
2023-03-29T15:54:09.941Z,297.75
2023-03-29T15:56:46.970Z,240.35
2023-03-29T15:59:15.328Z,209.27
2023-03-29T16:01:46.945Z,193.60
2023-03-29T16:04:17.411Z,193.10
2023-03-29T16:06:48.939Z,149.93
2023-03-29T16:09:17.391Z,110.53
2023-03-29T16:11:47.167Z,97.85
2023-03-29T16:14:21.153Z,90.13
2023-03-29T16:16:51.375Z,87.53
2023-03-29T16:19:20.157Z,79.78
2023-03-29T16:21:49.191Z,88.38
2023-03-29T16:24:20.027Z,72.20
2023-03-29T16:26:48.636Z,64.82
2023-03-29T16:29:17.469Z,58.38
2023-03-29T16:31:46.854Z,52.78
2023-03-29T16:34:18.758Z,49.05
2023-03-29T16:36:47.827Z,47.63
2023-03-29T16:39:16.624Z,40.17
2023-03-29T16:41:48.455Z,36.55
2023-03-29T16:44:21.603Z,37.38
2023-03-29T16:46:52.784Z,33.95
2023-03-29T16:49:22.500Z,32.47
2023-03-29T16:51:51.205Z,29.15
2023-03-29T16:54:19.769Z,26.60
2023-03-29T16:56:48.229Z,23.33
2023-03-29T16:59:16.741Z,22.98
2023-03-29T17:01:45.119Z,22.50
2023-03-29T17:04:13.590Z,21.92
2023-03-29T17:06:43.264Z,19.25
2023-03-29T17:09:11.551Z,18.15
2023-03-29T17:11:39.762Z,17.00
2023-03-29T17:14:08.138Z,17.20
2023-03-29T17:16:36.352Z,16.23
2023-03-29T17:19:04.672Z,16.65
2023-03-29T17:21:33.167Z,18.92
2023-03-29T17:24:03.156Z,15.45
2023-03-29T17:26:31.438Z,15.27
2023-03-29T17:28:59.725Z,14.20
2023-03-29T17:31:28.026Z,14.73
2023-03-29T17:33:56.368Z,14.52
2023-03-29T17:36:25.392Z,13.63
2023-03-29T17:38:54.751Z,16.08
2023-03-29T17:41:24.697Z,12.50
2023-03-29T17:43:52.925Z,12.25
2023-03-29T17:46:22.840Z,10.50
2023-03-29T17:48:51.998Z,11.50
2023-03-29T17:51:21.152Z,14.32
2023-03-29T17:53:49.484Z,18.92
2023-03-29T17:56:17.663Z,9.80
2023-03-29T17:58:49.164Z,10.43
2023-03-29T18:01:19.545Z,13.75
2023-03-29T18:03:48.661Z,9.25
2023-03-29T18:06:20.201Z,8.50
2023-03-29T18:08:48.822Z,10.75
2023-03-29T18:11:22.102Z,8.27
2023-03-29T18:13:52.426Z,14.15
2023-03-29T18:16:21.627Z,9.32
2023-03-29T18:18:50.325Z,11.18
2023-03-29T18:21:19.422Z,10.80
2023-03-29T18:23:48.977Z,11.02
2023-03-29T18:26:18.152Z,145.98
2023-03-29T18:28:47.706Z,272.25
2023-03-29T18:31:19.826Z,318.60
2023-03-29T18:33:48.575Z,328.65
2023-03-29T18:36:17.111Z,360.08
2023-03-29T18:38:45.832Z,348.60
2023-03-29T18:41:15.017Z,283.92
2023-03-29T18:43:44.278Z,255.13
2023-03-29T18:46:12.685Z,299.73
2023-03-29T18:48:42.622Z,285.30
2023-03-29T18:51:12.706Z,377.45
2023-03-29T18:53:42.027Z,502.60
2023-03-29T18:56:11.186Z,426.55
2023-03-29T18:58:39.582Z,418.55
2023-03-29T19:01:08.154Z,402.83
2023-03-29T19:03:37.042Z,389.02
2023-03-29T19:06:08.038Z,319.92
2023-03-29T19:08:39.634Z,283.37
2023-03-29T19:13:37.456Z,240.00
2023-03-29T19:16:06.400Z,485.73
2023-03-29T19:18:35.242Z,433.05
2023-03-29T19:21:03.741Z,404.65
2023-03-29T19:23:33.391Z,492.45
2023-03-29T19:26:03.590Z,430.77
2023-03-29T19:28:32.971Z,295.25
2023-03-29T19:31:03.020Z,225.57
2023-03-29T19:33:31.804Z,198.95
2023-03-29T19:36:00.132Z,177.13
2023-03-29T19:38:28.479Z,173.88
2023-03-29T19:40:58.145Z,154.18
2023-03-29T19:43:27.134Z,130.75
2023-03-29T19:45:55.365Z,114.45
2023-03-29T19:48:24.481Z,109.90
2023-03-29T19:50:53.065Z,99.47
2023-03-29T19:53:23.179Z,86.25
2023-03-29T19:55:52.463Z,72.47
2023-03-29T19:58:22.887Z,77.15
2023-03-29T20:00:53.325Z,64.75
2023-03-29T20:03:22.289Z,54.63
2023-03-29T20:05:50.551Z,40.97
2023-03-29T20:08:18.800Z,31.60
2023-03-29T20:10:46.937Z,23.42
2023-03-29T20:13:21.853Z,15.02
2023-03-29T20:15:57.658Z,13.67
2023-03-29T20:18:26.300Z,13.13
2023-03-29T20:20:54.732Z,12.00
2023-03-29T20:23:23.058Z,12.60
2023-03-29T20:25:51.312Z,11.30
2023-03-29T20:28:19.728Z,10.57
2023-03-29T20:30:51.249Z,14.55
2023-03-29T20:33:21.612Z,17.42
2023-03-29T20:35:50.291Z,11.73
2023-03-29T20:38:18.701Z,14.15
2023-03-29T20:40:47.019Z,17.05
2023-03-29T20:43:18.784Z,14.60
2023-03-29T20:45:54.023Z,14.65
2023-03-29T20:48:24.821Z,10.45
2023-03-29T20:50:54.374Z,10.23
2023-03-29T20:53:22.648Z,9.68
2023-03-29T20:55:51.691Z,8.02
2023-03-29T20:58:19.979Z,11.32
2023-03-29T21:00:48.499Z,6.65
2023-03-29T21:03:17.781Z,7.20
2023-03-29T21:05:47.438Z,7.35
2023-03-29T21:08:18.312Z,13.02
2023-03-29T21:10:47.818Z,9.63
2023-03-29T21:13:16.017Z,12.55
2023-03-29T21:15:44.501Z,10.13
2023-03-29T21:18:12.857Z,15.57
2023-03-29T21:20:41.096Z,11.13
2023-03-29T21:23:10.714Z,9.80
2023-03-29T21:25:38.889Z,14.25
2023-03-29T21:28:07.145Z,13.38
2023-03-29T21:30:35.439Z,10.30
2023-03-29T21:33:03.836Z,10.30
2023-03-29T21:35:33.314Z,11.63
2023-03-29T21:38:01.899Z,8.45
2023-03-29T21:40:31.597Z,7.63
2023-03-29T21:42:59.797Z,9.65
2023-03-29T21:45:28.398Z,10.68
2023-03-29T21:47:56.684Z,8.00
2023-03-29T21:50:25.020Z,6.25
2023-03-29T21:52:53.341Z,12.02
2023-03-29T21:55:21.595Z,9.68
2023-03-29T21:57:51.143Z,10.85
2023-03-29T22:00:19.575Z,8.98
2023-03-29T22:02:47.897Z,9.48
2023-03-29T22:05:16.666Z,7.90
2023-03-29T22:07:44.998Z,7.32
2023-03-29T22:10:14.073Z,9.05
2023-03-29T22:12:43.048Z,4.90
2023-03-29T22:15:13.427Z,8.27
2023-03-29T22:17:44.088Z,8.57
2023-03-29T22:20:13.886Z,5.28
2023-03-29T22:22:46.064Z,6.85
2023-03-29T22:25:14.534Z,7.15
2023-03-29T22:27:44.619Z,8.23
2023-03-29T22:30:17.968Z,7.18
2023-03-29T22:32:46.349Z,6.53
2023-03-29T22:35:14.686Z,6.50
2023-03-29T22:37:43.856Z,6.05
2023-03-29T22:40:13.472Z,5.50
2023-03-29T22:42:41.832Z,6.53
2023-03-29T22:45:11.314Z,5.00
2023-03-29T22:47:41.036Z,6.57
2023-03-29T22:50:10.295Z,7.25
2023-03-29T22:52:38.563Z,6.18
2023-03-29T22:55:07.741Z,5.57
2023-03-29T22:57:36.046Z,8.25
2023-03-29T23:00:09.014Z,7.05
2023-03-29T23:02:38.182Z,5.85
2023-03-29T23:05:09.248Z,5.28
2023-03-29T23:07:37.627Z,6.13
2023-03-29T23:10:07.247Z,7.82
2023-03-29T23:12:36.666Z,4.07
2023-03-29T23:15:06.326Z,6.22
2023-03-29T23:17:34.806Z,7.97
2023-03-29T23:20:05.939Z,5.55
2023-03-29T23:22:36.486Z,4.97
2023-03-29T23:25:04.969Z,7.82
2023-03-29T23:27:34.637Z,5.65
2023-03-29T23:30:02.944Z,5.90
2023-03-29T23:32:31.193Z,6.35
2023-03-29T23:35:00.397Z,7.57
2023-03-29T23:37:28.843Z,4.93
2023-03-29T23:39:58.443Z,8.30
2023-03-29T23:42:26.884Z,6.47
2023-03-29T23:44:55.932Z,4.72
2023-03-29T23:47:24.479Z,5.45
2023-03-29T23:49:53.315Z,6.35
2023-03-29T23:52:23.093Z,2.88
2023-03-29T23:54:51.500Z,7.10
2023-03-29T23:57:21.357Z,7.47
2023-03-29T23:59:52.797Z,5.10
